sensor_id;sensor_type;location;lat;lon;timestamp;pressure;altitude;pressure_sealevel;temperature;humidity
33635;BME280;19972;54.360;10.076;2022-08-19T00:01:57;102078.03;;;17.49;96.00
33635;BME280;19972;54.360;10.076;2022-08-19T00:04:28;102071.44;;;17.53;95.95
33635;BME280;19972;54.360;10.076;2022-08-19T00:06:56;102072.13;;;17.44;96.13
33635;BME280;19972;54.360;10.076;2022-08-19T00:09:24;102077.00;;;17.63;95.88
33635;BME280;19972;54.360;10.076;2022-08-19T00:11:52;102063.00;;;17.71;95.80
33635;BME280;19972;54.360;10.076;2022-08-19T00:14:20;102055.66;;;17.49;96.09
33635;BME280;19972;54.360;10.076;2022-08-19T00:16:47;102062.00;;;17.60;95.99
33635;BME280;19972;54.360;10.076;2022-08-19T00:19:15;102058.09;;;17.64;95.96
33635;BME280;19972;54.360;10.076;2022-08-19T00:21:42;102051.25;;;17.60;96.08
33635;BME280;19972;54.360;10.076;2022-08-19T00:24:11;102046.75;;;17.48;96.34
33635;BME280;19972;54.360;10.076;2022-08-19T00:26:39;102048.56;;;17.48;96.41
33635;BME280;19972;54.360;10.076;2022-08-19T00:29:07;102044.81;;;18.00;95.73
33635;BME280;19972;54.360;10.076;2022-08-19T00:31:34;102034.44;;;18.06;95.70
33635;BME280;19972;54.360;10.076;2022-08-19T00:34:02;102040.16;;;17.78;96.20
33635;BME280;19972;54.360;10.076;2022-08-19T00:36:29;102042.00;;;17.77;96.30
33635;BME280;19972;54.360;10.076;2022-08-19T00:38:55;102038.88;;;17.58;96.69
33635;BME280;19972;54.360;10.076;2022-08-19T00:41:24;102035.56;;;17.54;96.89
33635;BME280;19972;54.360;10.076;2022-08-19T00:46:32;102013.41;;;17.63;96.87
33635;BME280;19972;54.360;10.076;2022-08-19T00:49:00;102013.81;;;17.83;96.59
33635;BME280;19972;54.360;10.076;2022-08-19T00:51:30;102006.53;;;17.59;96.98
33635;BME280;19972;54.360;10.076;2022-08-19T00:54:00;102013.81;;;17.70;96.86
33635;BME280;19972;54.360;10.076;2022-08-19T00:56:28;102021.69;;;17.97;96.50
33635;BME280;19972;54.360;10.076;2022-08-19T00:58:56;102018.47;;;17.92;96.59
33635;BME280;19972;54.360;10.076;2022-08-19T01:01:25;102012.66;;;17.74;96.93
33635;BME280;19972;54.360;10.076;2022-08-19T01:03:51;102006.94;;;18.03;96.58
33635;BME280;19972;54.360;10.076;2022-08-19T01:06:24;102005.25;;;17.78;97.03
33635;BME280;19972;54.360;10.076;2022-08-19T01:08:50;101995.28;;;17.91;96.92
33635;BME280;19972;54.360;10.076;2022-08-19T01:11:17;101988.41;;;17.87;97.07
33635;BME280;19972;54.360;10.076;2022-08-19T01:13:44;101972.59;;;17.95;97.00
33635;BME280;19972;54.360;10.076;2022-08-19T01:16:16;101977.06;;;17.71;97.48
33635;BME280;19972;54.360;10.076;2022-08-19T01:18:44;101969.47;;;17.64;97.70
33635;BME280;19972;54.360;10.076;2022-08-19T01:21:22;101962.50;;;17.62;97.81
33635;BME280;19972;54.360;10.076;2022-08-19T01:23:50;101959.50;;;17.54;97.94
33635;BME280;19972;54.360;10.076;2022-08-19T01:26:21;101961.25;;;17.55;97.98
33635;BME280;19972;54.360;10.076;2022-08-19T01:28:51;101954.78;;;17.57;97.84
33635;BME280;19972;54.360;10.076;2022-08-19T01:31:21;101950.44;;;17.67;97.68
33635;BME280;19972;54.360;10.076;2022-08-19T01:33:54;101942.47;;;17.79;97.42
33635;BME280;19972;54.360;10.076;2022-08-19T01:36:31;101951.31;;;17.68;97.53
33635;BME280;19972;54.360;10.076;2022-08-19T01:38:59;101947.84;;;17.79;97.36
33635;BME280;19972;54.360;10.076;2022-08-19T01:41:26;101943.50;;;17.89;97.16
33635;BME280;19972;54.360;10.076;2022-08-19T01:43:53;101945.69;;;17.84;97.27
33635;BME280;19972;54.360;10.076;2022-08-19T01:46:40;101939.06;;;17.77;97.41
33635;BME280;19972;54.360;10.076;2022-08-19T01:49:08;101933.06;;;17.73;97.46
33635;BME280;19972;54.360;10.076;2022-08-19T01:51:36;101929.25;;;18.00;97.07
33635;BME280;19972;54.360;10.076;2022-08-19T01:54:05;101927.84;;;17.83;97.38
33635;BME280;19972;54.360;10.076;2022-08-19T01:56:32;101932.19;;;17.73;97.55
33635;BME280;19972;54.360;10.076;2022-08-19T01:59:10;101917.97;;;17.71;97.66
33635;BME280;19972;54.360;10.076;2022-08-19T02:01:38;101904.88;;;17.79;97.54
33635;BME280;19972;54.360;10.076;2022-08-19T02:04:05;101909.72;;;17.74;97.66
33635;BME280;19972;54.360;10.076;2022-08-19T02:06:32;101904.88;;;17.79;97.60
33635;BME280;19972;54.360;10.076;2022-08-19T02:08:59;101901.13;;;17.68;97.82
33635;BME280;19972;54.360;10.076;2022-08-19T02:11:32;101895.66;;;17.94;97.47
33635;BME280;19972;54.360;10.076;2022-08-19T02:14:02;101892.69;;;17.86;97.64
33635;BME280;19972;54.360;10.076;2022-08-19T02:16:28;101884.41;;;17.89;97.60
33635;BME280;19972;54.360;10.076;2022-08-19T02:18:56;101879.38;;;17.84;97.83
33635;BME280;19972;54.360;10.076;2022-08-19T02:21:23;101876.13;;;18.03;97.59
33635;BME280;19972;54.360;10.076;2022-08-19T02:23:50;101858.28;;;18.02;97.70
33635;BME280;19972;54.360;10.076;2022-08-19T02:26:17;101857.84;;;17.73;98.26
33635;BME280;19972;54.360;10.076;2022-08-19T02:28:44;101859.56;;;17.74;98.32
33635;BME280;19972;54.360;10.076;2022-08-19T02:31:12;101862.66;;;17.92;98.04
33635;BME280;19972;54.360;10.076;2022-08-19T02:33:39;101863.38;;;17.83;98.24
33635;BME280;19972;54.360;10.076;2022-08-19T02:36:07;101873.88;;;17.86;98.20
33635;BME280;19972;54.360;10.076;2022-08-19T02:38:34;101859.38;;;18.00;98.02
33635;BME280;19972;54.360;10.076;2022-08-19T02:41:05;101863.66;;;17.67;98.65
33635;BME280;19972;54.360;10.076;2022-08-19T02:43:33;101863.66;;;17.67;98.67
33635;BME280;19972;54.360;10.076;2022-08-19T02:46:19;101862.66;;;17.92;98.23
33635;BME280;19972;54.360;10.076;2022-08-19T02:48:52;101848.50;;;18.01;98.13
33635;BME280;19972;54.360;10.076;2022-08-19T02:51:22;101848.34;;;17.80;98.60
33635;BME280;19972;54.360;10.076;2022-08-19T02:53:49;101849.56;;;17.87;98.54
33635;BME280;19972;54.360;10.076;2022-08-19T02:56:16;101847.25;;;17.83;98.68
33635;BME280;19972;54.360;10.076;2022-08-19T02:58:43;101850.44;;;17.88;98.68
33635;BME280;19972;54.360;10.076;2022-08-19T03:01:18;101846.06;;;17.98;98.60
33635;BME280;19972;54.360;10.076;2022-08-19T03:03:45;101853.22;;;17.86;98.87
33635;BME280;19972;54.360;10.076;2022-08-19T03:06:15;101850.44;;;17.88;98.94
33635;BME280;19972;54.360;10.076;2022-08-19T03:08:43;101842.38;;;17.77;99.20
33635;BME280;19972;54.360;10.076;2022-08-19T03:11:20;101834.06;;;17.91;98.92
33635;BME280;19972;54.360;10.076;2022-08-19T03:13:47;101842.84;;;17.82;99.20
33635;BME280;19972;54.360;10.076;2022-08-19T03:16:15;101841.13;;;17.81;99.27
33635;BME280;19972;54.360;10.076;2022-08-19T03:18:42;101839.75;;;18.10;98.73
33635;BME280;19972;54.360;10.076;2022-08-19T03:21:09;101834.97;;;18.14;98.74
33635;BME280;19972;54.360;10.076;2022-08-19T03:23:40;101839.31;;;17.92;99.25
33635;BME280;19972;54.360;10.076;2022-08-19T03:26:07;101837.41;;;18.06;99.04
33635;BME280;19972;54.360;10.076;2022-08-19T03:28:43;101847.03;;;17.97;99.32
33635;BME280;19972;54.360;10.076;2022-08-19T03:31:21;101846.06;;;17.98;99.45
33635;BME280;19972;54.360;10.076;2022-08-19T03:34:18;101835.81;;;18.03;99.40
33635;BME280;19972;54.360;10.076;2022-08-19T03:36:46;101837.41;;;17.71;100.00
33635;BME280;19972;54.360;10.076;2022-08-19T03:39:14;101841.44;;;18.00;99.55
33635;BME280;19972;54.360;10.076;2022-08-19T03:41:42;101836.41;;;17.96;99.65
33635;BME280;19972;54.360;10.076;2022-08-19T03:44:18;101830.22;;;18.06;99.47
33635;BME280;19972;54.360;10.076;2022-08-19T03:46:48;101826.66;;;18.06;99.60
33635;BME280;19972;54.360;10.076;2022-08-19T03:49:16;101832.56;;;18.33;99.20
33635;BME280;19972;54.360;10.076;2022-08-19T03:51:44;101832.19;;;18.38;99.44
33635;BME280;19972;54.360;10.076;2022-08-19T03:54:13;101828.75;;;18.47;99.55
33635;BME280;19972;54.360;10.076;2022-08-19T03:56:42;101838.00;;;17.98;100.00
33635;BME280;19972;54.360;10.076;2022-08-19T03:59:12;101845.19;;;17.98;100.00
33635;BME280;19972;54.360;10.076;2022-08-19T04:01:39;101856.13;;;17.72;100.00
33635;BME280;19972;54.360;10.076;2022-08-19T04:04:06;101855.03;;;17.75;100.00
33635;BME280;19972;54.360;10.076;2022-08-19T04:06:35;101861.81;;;17.67;100.00
33635;BME280;19972;54.360;10.076;2022-08-19T04:09:07;101865.09;;;17.71;100.00
33635;BME280;19972;54.360;10.076;2022-08-19T04:11:43;101860.94;;;17.91;100.00
33635;BME280;19972;54.360;10.076;2022-08-19T04:14:12;101863.53;;;18.04;100.00
33635;BME280;19972;54.360;10.076;2022-08-19T04:16:41;101873.69;;;18.00;100.00
33635;BME280;19972;54.360;10.076;2022-08-19T04:19:07;101861.94;;;18.01;100.00
33635;BME280;19972;54.360;10.076;2022-08-19T04:21:34;101872.88;;;17.87;100.00
33635;BME280;19972;54.360;10.076;2022-08-19T04:24:01;101871.25;;;18.08;100.00
33635;BME280;19972;54.360;10.076;2022-08-19T04:26:30;101877.81;;;18.04;100.00
33635;BME280;19972;54.360;10.076;2022-08-19T04:29:01;101874.88;;;17.96;100.00
33635;BME280;19972;54.360;10.076;2022-08-19T04:31:32;101879.25;;;17.86;100.00
33635;BME280;19972;54.360;10.076;2022-08-19T04:34:05;101887.13;;;18.00;100.00
33635;BME280;19972;54.360;10.076;2022-08-19T04:36:36;101879.09;;;18.11;100.00
33635;BME280;19972;54.360;10.076;2022-08-19T04:39:15;101875.09;;;17.93;100.00
33635;BME280;19972;54.360;10.076;2022-08-19T04:41:42;101878.56;;;17.95;100.00
33635;BME280;19972;54.360;10.076;2022-08-19T04:44:32;101871.88;;;18.23;99.79
33635;BME280;19972;54.360;10.076;2022-08-19T04:47:01;101872.84;;;18.11;100.00
33635;BME280;19972;54.360;10.076;2022-08-19T04:49:37;101868.44;;;18.21;100.00
33635;BME280;19972;54.360;10.076;2022-08-19T04:52:03;101870.22;;;17.98;100.00
33635;BME280;19972;54.360;10.076;2022-08-19T04:54:30;101870.75;;;18.03;100.00
33635;BME280;19972;54.360;10.076;2022-08-19T04:57:06;101871.50;;;18.16;100.00
33635;BME280;19972;54.360;10.076;2022-08-19T04:59:34;101879.41;;;17.96;100.00
33635;BME280;19972;54.360;10.076;2022-08-19T05:02:01;101881.50;;;18.03;100.00
33635;BME280;19972;54.360;10.076;2022-08-19T05:04:29;101882.69;;;17.88;100.00
33635;BME280;19972;54.360;10.076;2022-08-19T05:06:59;101887.81;;;17.91;100.00
33635;BME280;19972;54.360;10.076;2022-08-19T05:09:28;101886.31;;;18.22;100.00
33635;BME280;19972;54.360;10.076;2022-08-19T05:12:15;101882.88;;;18.20;100.00
33635;BME280;19972;54.360;10.076;2022-08-19T05:14:42;101879.78;;;18.02;100.00
33635;BME280;19972;54.360;10.076;2022-08-19T05:17:09;101872.59;;;18.14;100.00
33635;BME280;19972;54.360;10.076;2022-08-19T05:19:53;101867.16;;;18.38;100.00
33635;BME280;19972;54.360;10.076;2022-08-19T05:22:38;101863.47;;;18.28;100.00
33635;BME280;19972;54.360;10.076;2022-08-19T05:25:17;101857.34;;;18.37;100.00
33635;BME280;19972;54.360;10.076;2022-08-19T05:27:46;101862.19;;;18.09;100.00
33635;BME280;19972;54.360;10.076;2022-08-19T05:30:13;101864.19;;;18.18;100.00
33635;BME280;19972;54.360;10.076;2022-08-19T05:32:39;101863.22;;;18.31;100.00
33635;BME280;19972;54.360;10.076;2022-08-19T05:35:06;101872.25;;;18.30;100.00
33635;BME280;19972;54.360;10.076;2022-08-19T05:37:33;101861.03;;;18.58;100.00
33635;BME280;19972;54.360;10.076;2022-08-19T05:40:00;101866.41;;;18.47;100.00
33635;BME280;19972;54.360;10.076;2022-08-19T05:42:27;101851.03;;;18.71;100.00
33635;BME280;19972;54.360;10.076;2022-08-19T05:44:54;101863.47;;;18.28;100.00
33635;BME280;19972;54.360;10.076;2022-08-19T05:47:22;101863.69;;;18.25;100.00
33635;BME280;19972;54.360;10.076;2022-08-19T05:49:49;101871.28;;;18.42;100.00
33635;BME280;19972;54.360;10.076;2022-08-19T05:52:19;101876.75;;;18.18;100.00
33635;BME280;19972;54.360;10.076;2022-08-19T05:54:52;101872.88;;;18.33;100.00
33635;BME280;19972;54.360;10.076;2022-08-19T05:57:21;101859.69;;;18.41;100.00
33635;BME280;19972;54.360;10.076;2022-08-19T05:59:48;101865.41;;;18.59;100.00
33635;BME280;19972;54.360;10.076;2022-08-19T06:02:23;101853.94;;;18.80;100.00
33635;BME280;19972;54.360;10.076;2022-08-19T06:04:49;101853.94;;;18.80;100.00
33635;BME280;19972;54.360;10.076;2022-08-19T06:07:16;101854.94;;;18.79;100.00
33635;BME280;19972;54.360;10.076;2022-08-19T06:09:43;101854.44;;;18.62;100.00
33635;BME280;19972;54.360;10.076;2022-08-19T06:12:25;101847.34;;;18.95;100.00
33635;BME280;19972;54.360;10.076;2022-08-19T06:14:55;101847.38;;;18.72;100.00
33635;BME280;19972;54.360;10.076;2022-08-19T06:17:27;101835.72;;;18.94;100.00
33635;BME280;19972;54.360;10.076;2022-08-19T06:19:53;101827.00;;;19.02;100.00
33635;BME280;19972;54.360;10.076;2022-08-19T06:22:20;101827.00;;;19.02;100.00
33635;BME280;19972;54.360;10.076;2022-08-19T06:24:46;101825.56;;;18.76;100.00
33635;BME280;19972;54.360;10.076;2022-08-19T06:27:13;101830.47;;;18.82;100.00
33635;BME280;19972;54.360;10.076;2022-08-19T06:29:39;101823.59;;;19.00;100.00
33635;BME280;19972;54.360;10.076;2022-08-19T06:32:06;101825.84;;;18.50;100.00
33635;BME280;19972;54.360;10.076;2022-08-19T06:34:34;101831.94;;;18.52;100.00
33635;BME280;19972;54.360;10.076;2022-08-19T06:37:01;101827.41;;;18.64;100.00
33635;BME280;19972;54.360;10.076;2022-08-19T06:39:33;101813.34;;;18.94;100.00
33635;BME280;19972;54.360;10.076;2022-08-19T06:42:03;101811.38;;;18.62;100.00
33635;BME280;19972;54.360;10.076;2022-08-19T06:44:34;101808.34;;;18.56;100.00
33635;BME280;19972;54.360;10.076;2022-08-19T06:47:13;101801.59;;;18.84;100.00
33635;BME280;19972;54.360;10.076;2022-08-19T06:49:56;101805.53;;;18.57;100.00
33635;BME280;19972;54.360;10.076;2022-08-19T06:52:33;101807.19;;;18.92;100.00
33635;BME280;19972;54.360;10.076;2022-08-19T06:55:04;101803.00;;;19.10;100.00
33635;BME280;19972;54.360;10.076;2022-08-19T06:57:32;101804.31;;;18.72;100.00
33635;BME280;19972;54.360;10.076;2022-08-19T06:59:59;101810.41;;;18.86;100.00
33635;BME280;19972;54.360;10.076;2022-08-19T07:02:26;101808.47;;;18.88;100.00
33635;BME280;19972;54.360;10.076;2022-08-19T07:04:53;101825.34;;;18.67;100.00
33635;BME280;19972;54.360;10.076;2022-08-19T07:07:20;101822.41;;;18.70;100.00
33635;BME280;19972;54.360;10.076;2022-08-19T07:09:48;101822.66;;;18.67;100.00
33635;BME280;19972;54.360;10.076;2022-08-19T07:12:28;101817.50;;;18.87;100.00
33635;BME280;19972;54.360;10.076;2022-08-19T07:14:56;101825.78;;;19.06;100.00
33635;BME280;19972;54.360;10.076;2022-08-19T07:17:23;101824.88;;;19.17;100.00
33635;BME280;19972;54.360;10.076;2022-08-19T07:19:50;101821.38;;;19.37;100.00
33635;BME280;19972;54.360;10.076;2022-08-19T07:22:20;101821.78;;;19.33;100.00
33635;BME280;19972;54.360;10.076;2022-08-19T07:24:50;101814.22;;;19.47;100.00
33635;BME280;19972;54.360;10.076;2022-08-19T07:27:17;101843.16;;;19.02;100.00
33635;BME280;19972;54.360;10.076;2022-08-19T07:29:51;101841.09;;;19.38;100.00
33635;BME280;19972;54.360;10.076;2022-08-19T07:32:22;101840.91;;;19.18;100.00
33635;BME280;19972;54.360;10.076;2022-08-19T07:34:48;101832.41;;;19.34;100.00
33635;BME280;19972;54.360;10.076;2022-08-19T07:37:15;101822.19;;;19.60;100.00
33635;BME280;19972;54.360;10.076;2022-08-19T07:39:42;101823.28;;;19.46;100.00
33635;BME280;19972;54.360;10.076;2022-08-19T07:42:10;101819.50;;;19.49;100.00
33635;BME280;19972;54.360;10.076;2022-08-19T07:44:40;101823.47;;;19.34;100.00
33635;BME280;19972;54.360;10.076;2022-08-19T07:47:07;101818.91;;;19.45;100.00
33635;BME280;19972;54.360;10.076;2022-08-19T07:49:53;101816.50;;;19.31;100.00
33635;BME280;19972;54.360;10.076;2022-08-19T07:52:20;101819.63;;;19.04;100.00
33635;BME280;19972;54.360;10.076;2022-08-19T07:54:47;101816.22;;;19.02;100.00
33635;BME280;19972;54.360;10.076;2022-08-19T07:57:13;101828.53;;;18.72;100.00
33635;BME280;19972;54.360;10.076;2022-08-19T07:59:40;101841.47;;;18.56;100.00
33635;BME280;19972;54.360;10.076;2022-08-19T08:02:07;101852.44;;;18.98;100.00
33635;BME280;19972;54.360;10.076;2022-08-19T08:04:34;101855.63;;;19.03;100.00
33635;BME280;19972;54.360;10.076;2022-08-19T08:07:19;101854.59;;;18.72;100.00
33635;BME280;19972;54.360;10.076;2022-08-19T08:10:12;101871.09;;;18.67;100.00
33635;BME280;19972;54.360;10.076;2022-08-19T08:12:47;101868.88;;;18.72;100.00
33635;BME280;19972;54.360;10.076;2022-08-19T08:15:35;101865.19;;;18.85;100.00
33635;BME280;19972;54.360;10.076;2022-08-19T08:18:09;101865.69;;;18.90;100.00
33635;BME280;19972;54.360;10.076;2022-08-19T08:20:35;101867.91;;;18.85;100.00
33635;BME280;19972;54.360;10.076;2022-08-19T08:23:02;101866.31;;;19.25;100.00
33635;BME280;19972;54.360;10.076;2022-08-19T08:25:48;101863.34;;;19.40;100.00
33635;BME280;19972;54.360;10.076;2022-08-19T08:28:18;101859.00;;;19.28;100.00
33635;BME280;19972;54.360;10.076;2022-08-19T08:30:47;101865.16;;;19.07;100.00
33635;BME280;19972;54.360;10.076;2022-08-19T08:33:21;101864.03;;;19.10;100.00
33635;BME280;19972;54.360;10.076;2022-08-19T08:36:10;101874.72;;;19.11;100.00
33635;BME280;19972;54.360;10.076;2022-08-19T08:38:37;101869.16;;;19.24;100.00
33635;BME280;19972;54.360;10.076;2022-08-19T08:41:20;101876.97;;;19.38;100.00
33635;BME280;19972;54.360;10.076;2022-08-19T08:43:51;101869.78;;;19.28;100.00
33635;BME280;19972;54.360;10.076;2022-08-19T08:46:37;101867.47;;;19.55;100.00
33635;BME280;19972;54.360;10.076;2022-08-19T08:51:54;101857.59;;;19.44;100.00
33635;BME280;19972;54.360;10.076;2022-08-19T08:54:32;101864.13;;;19.95;100.00
33635;BME280;19972;54.360;10.076;2022-08-19T08:57:04;101859.25;;;19.57;100.00
33635;BME280;19972;54.360;10.076;2022-08-19T08:59:38;101855.78;;;19.34;100.00
33635;BME280;19972;54.360;10.076;2022-08-19T09:02:05;101857.31;;;19.59;100.00
33635;BME280;19972;54.360;10.076;2022-08-19T09:04:34;101857.06;;;19.62;100.00
33635;BME280;19972;54.360;10.076;2022-08-19T09:10:32;101848.66;;;19.44;100.00
33635;BME280;19972;54.360;10.076;2022-08-19T09:16:22;101833.97;;;19.37;100.00
33635;BME280;19972;54.360;10.076;2022-08-19T09:19:02;101830.19;;;19.39;100.00
33635;BME280;19972;54.360;10.076;2022-08-19T09:21:31;101833.91;;;19.27;100.00
33635;BME280;19972;54.360;10.076;2022-08-19T09:24:00;101830.53;;;19.46;100.00
33635;BME280;19972;54.360;10.076;2022-08-19T09:26:29;101831.81;;;19.31;100.00
33635;BME280;19972;54.360;10.076;2022-08-19T09:29:16;101839.44;;;19.14;100.00
33635;BME280;19972;54.360;10.076;2022-08-19T09:31:43;101845.41;;;18.75;100.00
33635;BME280;19972;54.360;10.076;2022-08-19T09:34:09;101851.22;;;19.45;100.00
33635;BME280;19972;54.360;10.076;2022-08-19T09:36:48;101837.69;;;19.68;100.00
33635;BME280;19972;54.360;10.076;2022-08-19T09:39:20;101831.66;;;19.43;100.00
33635;BME280;19972;54.360;10.076;2022-08-19T09:41:46;101827.06;;;19.23;100.00
33635;BME280;19972;54.360;10.076;2022-08-19T09:44:14;101839.78;;;19.32;100.00
33635;BME280;19972;54.360;10.076;2022-08-19T09:46:41;101831.97;;;19.50;100.00
33635;BME280;19972;54.360;10.076;2022-08-19T09:49:08;101829.97;;;19.31;100.00
33635;BME280;19972;54.360;10.076;2022-08-19T09:51:34;101836.56;;;18.95;100.00
33635;BME280;19972;54.360;10.076;2022-08-19T09:54:03;101841.59;;;18.88;100.00
33635;BME280;19972;54.360;10.076;2022-08-19T09:56:31;101825.13;;;19.46;100.00
33635;BME280;19972;54.360;10.076;2022-08-19T09:59:01;101839.56;;;19.13;100.00
33635;BME280;19972;54.360;10.076;2022-08-19T10:01:29;101842.38;;;19.55;100.00
33635;BME280;19972;54.360;10.076;2022-08-19T10:03:58;101818.69;;;19.58;100.00
33635;BME280;19972;54.360;10.076;2022-08-19T10:06:26;101820.75;;;19.45;100.00
33635;BME280;19972;54.360;10.076;2022-08-19T10:09:12;101816.50;;;19.31;100.00
33635;BME280;19972;54.360;10.076;2022-08-19T10:11:44;101819.13;;;19.21;100.00
33635;BME280;19972;54.360;10.076;2022-08-19T10:14:20;101818.34;;;19.63;100.00
33635;BME280;19972;54.360;10.076;2022-08-19T10:16:49;101809.44;;;19.51;100.00
33635;BME280;19972;54.360;10.076;2022-08-19T10:19:18;101802.94;;;19.53;100.00
33635;BME280;19972;54.360;10.076;2022-08-19T10:21:52;101802.97;;;19.74;100.00
33635;BME280;19972;54.360;10.076;2022-08-19T10:24:19;101804.34;;;19.37;100.00
33635;BME280;19972;54.360;10.076;2022-08-19T10:26:46;101806.13;;;19.47;100.00
33635;BME280;19972;54.360;10.076;2022-08-19T10:29:24;101801.19;;;19.64;100.00
33635;BME280;19972;54.360;10.076;2022-08-19T10:31:59;101795.25;;;19.60;100.00
33635;BME280;19972;54.360;10.076;2022-08-19T10:34:29;101806.50;;;19.22;100.00
33635;BME280;19972;54.360;10.076;2022-08-19T10:36:57;101792.00;;;19.66;100.00
33635;BME280;19972;54.360;10.076;2022-08-19T10:39:28;101786.66;;;19.55;100.00
33635;BME280;19972;54.360;10.076;2022-08-19T10:41:57;101785.81;;;19.96;100.00
33635;BME280;19972;54.360;10.076;2022-08-19T10:44:24;101777.56;;;19.98;100.00
33635;BME280;19972;54.360;10.076;2022-08-19T10:46:58;101769.75;;;20.25;100.00
33635;BME280;19972;54.360;10.076;2022-08-19T10:49:25;101757.63;;;20.41;100.00
33635;BME280;19972;54.360;10.076;2022-08-19T10:51:53;101754.91;;;20.00;100.00
33635;BME280;19972;54.360;10.076;2022-08-19T10:54:44;101744.78;;;20.23;100.00
33635;BME280;19972;54.360;10.076;2022-08-19T10:57:33;101744.59;;;19.85;100.00
33635;BME280;19972;54.360;10.076;2022-08-19T11:00:21;101743.59;;;20.07;100.00
33635;BME280;19972;54.360;10.076;2022-08-19T11:02:47;101734.19;;;20.01;100.00
33635;BME280;19972;54.360;10.076;2022-08-19T11:05:14;101745.50;;;19.95;100.00
33635;BME280;19972;54.360;10.076;2022-08-19T11:07:42;101745.09;;;20.30;100.00
33635;BME280;19972;54.360;10.076;2022-08-19T11:10:13;101731.03;;;20.67;100.00
33635;BME280;19972;54.360;10.076;2022-08-19T11:12:46;101722.41;;;20.33;100.00
33635;BME280;19972;54.360;10.076;2022-08-19T11:15:13;101722.78;;;20.68;100.00
33635;BME280;19972;54.360;10.076;2022-08-19T11:17:40;101703.88;;;20.68;100.00
33635;BME280;19972;54.360;10.076;2022-08-19T11:20:08;101698.28;;;20.41;100.00
33635;BME280;19972;54.360;10.076;2022-08-19T11:22:35;101697.47;;;20.50;100.00
33635;BME280;19972;54.360;10.076;2022-08-19T11:25:09;101694.00;;;20.28;100.00
33635;BME280;19972;54.360;10.076;2022-08-19T11:27:40;101688.97;;;20.54;100.00
33635;BME280;19972;54.360;10.076;2022-08-19T11:30:12;101686.69;;;20.60;100.00
33635;BME280;19972;54.360;10.076;2022-08-19T11:32:40;101684.53;;;20.44;100.00
33635;BME280;19972;54.360;10.076;2022-08-19T11:35:14;101684.88;;;20.10;100.00
33635;BME280;19972;54.360;10.076;2022-08-19T11:37:42;101681.25;;;20.40;100.00
33635;BME280;19972;54.360;10.076;2022-08-19T11:40:09;101680.50;;;20.28;100.00
33635;BME280;19972;54.360;10.076;2022-08-19T11:42:36;101677.31;;;20.64;100.00
33635;BME280;19972;54.360;10.076;2022-08-19T11:45:24;101671.44;;;20.39;100.00
33635;BME280;19972;54.360;10.076;2022-08-19T11:47:50;101672.50;;;20.87;100.00
33635;BME280;19972;54.360;10.076;2022-08-19T11:50:17;101652.63;;;20.49;100.00
33635;BME280;19972;54.360;10.076;2022-08-19T11:52:44;101654.59;;;20.56;100.00
33635;BME280;19972;54.360;10.076;2022-08-19T11:55:12;101645.50;;;20.87;100.00
33635;BME280;19972;54.360;10.076;2022-08-19T11:57:39;101662.00;;;20.54;100.00
33635;BME280;19972;54.360;10.076;2022-08-19T12:00:08;101662.56;;;20.08;100.00
33635;BME280;19972;54.360;10.076;2022-08-19T12:02:35;101677.25;;;20.35;100.00
33635;BME280;19972;54.360;10.076;2022-08-19T12:05:01;101680.31;;;20.20;100.00
33635;BME280;19972;54.360;10.076;2022-08-19T12:07:32;101694.16;;;19.96;100.00
33635;BME280;19972;54.360;10.076;2022-08-19T12:10:03;101694.78;;;19.79;100.00
33635;BME280;19972;54.360;10.076;2022-08-19T12:12:30;101709.16;;;20.29;100.00
33635;BME280;19972;54.360;10.076;2022-08-19T12:14:57;101698.47;;;20.59;100.00
33635;BME280;19972;54.360;10.076;2022-08-19T12:17:27;101691.84;;;20.32;100.00
33635;BME280;19972;54.360;10.076;2022-08-19T12:19:54;101698.19;;;20.52;100.00
33635;BME280;19972;54.360;10.076;2022-08-19T12:22:21;101695.91;;;20.07;100.00
33635;BME280;19972;54.360;10.076;2022-08-19T12:24:47;101696.75;;;20.48;100.00
33635;BME280;19972;54.360;10.076;2022-08-19T12:27:17;101693.22;;;20.76;100.00
33635;BME280;19972;54.360;10.076;2022-08-19T12:29:57;101677.31;;;20.54;100.00
33635;BME280;19972;54.360;10.076;2022-08-19T12:32:28;101675.63;;;20.13;100.00
33635;BME280;19972;54.360;10.076;2022-08-19T12:34:54;101683.47;;;20.25;100.00
33635;BME280;19972;54.360;10.076;2022-08-19T12:37:21;101684.16;;;20.77;100.00
33635;BME280;19972;54.360;10.076;2022-08-19T12:39:47;101677.19;;;20.15;100.00
33635;BME280;19972;54.360;10.076;2022-08-19T12:42:14;101674.34;;;20.76;100.00
33635;BME280;19972;54.360;10.076;2022-08-19T12:44:42;101670.53;;;20.79;100.00
33635;BME280;19972;54.360;10.076;2022-08-19T12:47:11;101665.97;;;20.79;100.00
33635;BME280;19972;54.360;10.076;2022-08-19T12:49:38;101648.91;;;20.69;100.00
33635;BME280;19972;54.360;10.076;2022-08-19T12:52:24;101633.25;;;21.21;100.00
33635;BME280;19972;54.360;10.076;2022-08-19T12:54:53;101615.25;;;21.59;100.00
33635;BME280;19972;54.360;10.076;2022-08-19T12:57:22;101598.13;;;22.23;100.00
33635;BME280;19972;54.360;10.076;2022-08-19T13:00:19;101545.88;;;22.40;100.00
33635;BME280;19972;54.360;10.076;2022-08-19T13:02:49;101529.50;;;21.79;100.00